Terminal Aerodrome Forecast
Issued by NWS

Home | Current Version | Previous Version | Text Only | Print | Product List | Glossary On
Versions: 1 2 3 4 5 6 7 8 9 10 11 12 13 14 15 16 17 18 19 20 21 22 23 24 25 26 27 28 29 30 31 32
000
FTUS42 KJAX 222111 AAC
TAFVQQ
TAF AMD
KVQQ 222111Z 2221/2318 22014G22KT P6SM VCTS BKN040CB
     FM222300 21015G25KT P6SM -RA VCTS FEW015 BKN030CB BKN060
      TEMPO 2223/2301 VRB30G50KT 1/2SM +TSRA SCT010 BKN020CB OVC050
     FM230100 21012G25KT P6SM VCTS SCT025CB SCT050 BKN100
     FM230300 23015G22KT P6SM BKN050=

USA.gov is the U.S. government's official web portal to all federal, state and local government web resources and services.